Time;durP1;ratioP1;P1;durP2;ratioP2;P2;SDS_P1;SDS_P2;PMS_P1;PMS_P2;Temp;Humidity;BMP_temperature;BMP_pressure;BME280_temperature;BME280_humidity;BME280_pressure;Samples;Min_cycle;Max_cycle;Signal;HPM_P1;HPM_P2
2022/06/18 00:00:58;;;;;;;7.18;4.40;;;16.40;99.90;;;;;;4991608;28;20027;-86
2022/06/18 00:03:24;;;;;;;11.30;4.65;;;16.40;99.90;;;;;;4991602;28;20070;-85
2022/06/18 00:05:53;;;;;;;5.45;3.90;;;16.40;99.90;;;;;;4991474;28;20022;-86
2022/06/18 00:08:28;;;;;;;10.23;4.93;;;16.40;99.90;;;;;;4991825;28;20018;-86
2022/06/18 00:13:39;;;;;;;9.48;5.10;;;16.40;99.90;;;;;;4991420;28;20770;-86
2022/06/18 00:13:43;;;;;;;11.23;4.85;;;16.40;99.90;;;;;;4991356;28;20483;-86
2022/06/18 00:16:12;;;;;;;9.88;5.22;;;16.30;99.90;;;;;;4991243;28;20018;-85
2022/06/18 00:18:38;;;;;;;11.77;5.53;;;16.40;99.90;;;;;;4991792;28;20026;-85
2022/06/18 00:21:07;;;;;;;12.02;5.38;;;16.30;99.90;;;;;;4991488;28;20026;-86
2022/06/18 00:23:33;;;;;;;14.13;6.50;;;16.30;99.90;;;;;;4986624;28;20027;-85
2022/06/18 00:25:58;;;;;;;12.25;7.20;;;16.30;99.90;;;;;;4989884;28;20019;-85
2022/06/18 00:28:28;;;;;;;10.43;6.70;;;16.30;99.90;;;;;;4991354;28;20053;-85
2022/06/18 00:30:54;;;;;;;11.40;7.30;;;16.20;99.90;;;;;;4991158;28;20756;-85
2022/06/18 00:33:21;;;;;;;15.95;7.88;;;16.10;99.90;;;;;;4988749;28;20070;-85
2022/06/18 00:35:48;;;;;;;10.02;6.47;;;16.10;99.90;;;;;;4987177;28;20050;-85
2022/06/18 00:38:27;;;;;;;12.18;6.97;;;16.10;99.90;;;;;;4990623;28;20025;-85
2022/06/18 00:40:53;;;;;;;10.35;7.55;;;16.10;99.90;;;;;;4989362;28;20069;-85
2022/06/18 00:43:28;;;;;;;11.80;6.75;;;16.00;99.90;;;;;;4990745;28;20015;-85
2022/06/18 00:46:09;;;;;;;16.67;7.68;;;16.00;99.90;;;;;;4991159;28;20027;-85
2022/06/18 00:48:48;;;;;;;10.70;7.32;;;15.90;99.90;;;;;;4985389;28;20023;-85
2022/06/18 00:51:20;;;;;;;10.50;6.55;;;16.00;99.90;;;;;;4984736;28;20027;-86
2022/06/18 00:53:51;;;;;;;19.42;7.80;;;15.90;99.90;;;;;;5007463;23;20101;-84
2022/06/18 00:56:34;;;;;;;11.75;6.70;;;15.90;99.90;;;;;;4991561;28;20041;-84
2022/06/18 00:59:11;;;;;;;12.27;7.53;;;15.90;99.90;;;;;;4992651;28;20113;-84
2022/06/18 01:01:42;;;;;;;14.85;8.75;;;15.80;99.90;;;;;;4991876;28;20022;-84
2022/06/18 01:04:40;;;;;;;14.30;9.33;;;15.80;99.90;;;;;;4991477;28;20033;-84
2022/06/18 01:07:15;;;;;;;12.32;8.65;;;15.80;99.90;;;;;;4950130;28;20038;-84
2022/06/18 01:09:42;;;;;;;14.48;9.70;;;15.80;99.90;;;;;;4991613;28;20052;-84
2022/06/18 01:12:10;;;;;;;15.68;9.38;;;15.80;99.90;;;;;;4991398;28;20432;-84
2022/06/18 01:14:36;;;;;;;15.50;10.45;;;15.80;99.90;;;;;;4991253;28;20133;-84
2022/06/18 01:17:04;;;;;;;21.02;10.90;;;15.80;99.90;;;;;;4991132;28;20391;-84
2022/06/18 01:19:42;;;;;;;19.33;10.48;;;15.80;99.90;;;;;;4991238;28;20026;-85
2022/06/18 01:22:33;;;;;;;18.25;11.18;;;15.90;99.90;;;;;;4984764;28;20512;-84
2022/06/18 01:24:59;;;;;;;15.07;10.15;;;15.90;99.90;;;;;;4985459;28;20476;-85
2022/06/18 01:27:25;;;;;;;15.23;9.07;;;15.90;99.90;;;;;;4991029;28;20034;-84
2022/06/18 01:29:51;;;;;;;13.27;8.98;;;15.80;99.90;;;;;;4992267;28;20026;-84
2022/06/18 01:32:18;;;;;;;17.88;11.40;;;15.80;99.90;;;;;;4994498;28;20010;-84
2022/06/18 01:34:45;;;;;;;18.92;10.48;;;15.80;99.90;;;;;;4994047;28;20085;-86
2022/06/18 01:37:11;;;;;;;14.20;9.88;;;15.80;99.90;;;;;;4989883;28;20023;-85
2022/06/18 01:39:42;;;;;;;13.27;9.90;;;15.80;99.90;;;;;;4994785;28;20061;-85
2022/06/18 01:42:21;;;;;;;17.77;11.52;;;15.80;99.90;;;;;;4988013;28;20021;-85
2022/06/18 01:44:54;;;;;;;15.85;9.65;;;15.70;99.90;;;;;;4994721;28;20023;-85
2022/06/18 01:47:22;;;;;;;12.02;8.48;;;15.70;99.90;;;;;;4994706;28;20022;-85
2022/06/18 01:50:08;;;;;;;14.95;10.60;;;15.60;99.90;;;;;;4994707;28;20109;-85
2022/06/18 01:52:41;;;;;;;18.08;10.40;;;15.60;99.90;;;;;;4994561;28;20122;-85
2022/06/18 01:55:21;;;;;;;18.63;10.90;;;15.60;99.90;;;;;;5021958;23;20069;-84
2022/06/18 01:57:51;;;;;;;18.27;11.07;;;15.70;99.90;;;;;;4994624;28;20054;-84
2022/06/18 02:00:22;;;;;;;15.07;10.52;;;15.60;99.90;;;;;;5000956;28;20023;-84
2022/06/18 02:02:49;;;;;;;15.80;10.85;;;15.60;99.90;;;;;;4994341;28;20022;-84
2022/06/18 02:05:16;;;;;;;19.38;12.02;;;15.50;99.90;;;;;;4994478;28;20031;-84
2022/06/18 02:07:44;;;;;;;17.95;10.88;;;15.50;99.90;;;;;;4992325;28;20032;-85
2022/06/18 02:10:41;;;;;;;16.50;10.88;;;15.50;99.90;;;;;;4991866;28;20033;-84
2022/06/18 02:13:08;;;;;;;14.63;9.02;;;15.40;99.90;;;;;;4985908;28;20035;-84
2022/06/18 02:15:43;;;;;;;16.65;10.90;;;15.50;99.90;;;;;;4994234;28;20088;-84
2022/06/18 02:18:12;;;;;;;13.23;9.70;;;15.40;99.90;;;;;;4991968;28;20439;-84
2022/06/18 02:20:44;;;;;;;13.60;10.40;;;15.40;99.90;;;;;;4991763;28;20037;-84
2022/06/18 02:23:11;;;;;;;16.65;10.13;;;15.40;99.90;;;;;;4993899;28;20014;-84
2022/06/18 02:25:37;;;;;;;16.95;10.65;;;15.30;99.90;;;;;;4996031;28;20479;-84
2022/06/18 02:28:19;;;;;;;10.05;7.43;;;15.30;99.90;;;;;;4993871;28;20454;-84
2022/06/18 02:30:44;;;;;;;9.02;6.55;;;15.30;99.90;;;;;;4994211;28;20073;-84
2022/06/18 02:33:37;;;;;;;15.38;6.90;;;15.40;99.90;;;;;;4993701;28;20415;-84
2022/06/18 02:36:21;;;;;;;9.73;6.80;;;15.30;99.90;;;;;;4989619;28;20029;-84
2022/06/18 02:38:48;;;;;;;12.23;6.38;;;15.30;99.90;;;;;;4990789;28;20026;-84
2022/06/18 02:41:14;;;;;;;9.50;6.47;;;15.20;99.90;;;;;;4993617;28;20483;-84
2022/06/18 02:43:44;;;;;;;12.23;6.50;;;15.20;99.90;;;;;;4993885;28;20054;-84
2022/06/18 02:46:11;;;;;;;12.63;5.20;;;15.20;99.90;;;;;;4993931;28;20023;-84
2022/06/18 02:48:38;;;;;;;8.77;5.05;;;15.10;99.90;;;;;;4993464;28;20109;-85
2022/06/18 02:51:04;;;;;;;8.80;5.00;;;15.20;99.90;;;;;;4993503;28;20017;-84
2022/06/18 02:56:04;;;;;;;8.68;5.68;;;15.10;99.90;;;;;;5040051;28;20042;-86
2022/06/18 02:58:36;;;;;;;8.65;5.35;;;15.10;99.90;;;;;;5008202;28;20032;-86
2022/06/18 03:01:05;;;;;;;;;;;15.10;99.90;;;;;;5015461;28;20021;-85
2022/06/18 03:03:38;;;;;;;7.88;4.88;;;15.10;99.90;;;;;;5032704;28;20432;-86
2022/06/18 03:06:05;;;;;;;9.32;5.32;;;15.10;99.90;;;;;;5015030;28;20021;-86
2022/06/18 03:08:33;;;;;;;9.30;5.38;;;15.10;99.90;;;;;;5014839;28;20030;-85
2022/06/18 03:13:44;;;;;;;6.65;4.75;;;15.10;99.90;;;;;;5032366;28;20048;-85
2022/06/18 03:16:14;;;;;;;6.78;4.40;;;15.00;99.90;;;;;;5032329;28;20029;-84
2022/06/18 03:18:41;;;;;;;7.25;5.20;;;14.90;99.90;;;;;;5032564;28;20073;-85
2022/06/18 03:21:17;;;;;;;7.93;4.78;;;14.90;99.90;;;;;;5032404;28;20422;-85
2022/06/18 03:23:44;;;;;;;7.63;5.68;;;14.90;99.90;;;;;;5014531;28;20454;-85
2022/06/18 03:26:11;;;;;;;9.73;5.55;;;14.90;99.90;;;;;;5034389;28;20018;-85
2022/06/18 03:28:37;;;;;;;8.07;5.47;;;15.00;99.90;;;;;;5032195;28;20029;-85
2022/06/18 03:31:04;;;;;;;6.22;4.95;;;14.90;99.90;;;;;;5032264;28;20032;-85
2022/06/18 03:33:30;;;;;;;9.13;4.50;;;14.90;99.90;;;;;;5031968;28;20034;-85
2022/06/18 03:35:56;;;;;;;10.30;4.85;;;14.90;99.90;;;;;;5032432;28;20490;-85
2022/06/18 03:38:23;;;;;;;10.63;6.00;;;14.90;99.90;;;;;;5014478;28;20032;-85
2022/06/18 03:40:52;;;;;;;9.55;6.00;;;14.90;99.90;;;;;;5014466;28;20030;-85
2022/06/18 03:43:27;;;;;;;12.40;6.22;;;14.90;99.90;;;;;;5032110;28;20470;-85
2022/06/18 03:45:58;;;;;;;8.73;6.25;;;14.90;99.90;;;;;;5031877;28;20022;-85
2022/06/18 03:48:32;;;;;;;12.25;7.50;;;14.90;99.90;;;;;;5038582;28;20022;-85
2022/06/18 03:50:58;;;;;;;11.00;6.30;;;14.80;99.90;;;;;;5013754;28;20027;-85
2022/06/18 03:53:23;;;;;;;10.25;6.15;;;14.80;99.90;;;;;;5031771;28;20033;-86
2022/06/18 03:55:50;;;;;;;7.68;5.43;;;14.80;99.90;;;;;;5031646;22;20038;-83
2022/06/18 03:58:16;;;;;;;11.73;5.85;;;14.80;99.90;;;;;;4993021;28;20026;-83
2022/06/18 04:00:42;;;;;;;12.55;5.65;;;14.80;99.90;;;;;;5008696;28;20479;-83
2022/06/18 04:03:08;;;;;;;8.13;4.40;;;14.70;99.90;;;;;;5011928;28;20037;-83
2022/06/18 04:05:37;;;;;;;10.63;5.65;;;14.70;99.90;;;;;;5012116;28;20559;-83
2022/06/18 04:08:03;;;;;;;9.75;6.25;;;14.70;99.90;;;;;;5011996;28;20065;-84
2022/06/18 04:10:29;;;;;;;9.35;5.30;;;14.70;99.90;;;;;;5011628;28;20076;-84
2022/06/18 04:12:54;;;;;;;11.88;5.80;;;14.70;99.90;;;;;;5011760;28;20037;-84
2022/06/18 04:15:20;;;;;;;9.75;5.10;;;14.70;99.90;;;;;;5011876;28;20034;-84
2022/06/18 04:17:47;;;;;;;8.50;5.00;;;14.70;99.90;;;;;;5011534;28;20030;-84
2022/06/18 04:20:26;;;;;;;7.43;4.78;;;14.70;99.90;;;;;;5011688;28;20053;-84
2022/06/18 04:22:53;;;;;;;7.22;4.85;;;14.70;99.90;;;;;;5011761;28;20037;-84
2022/06/18 04:25:19;;;;;;;9.73;5.10;;;14.70;99.90;;;;;;5010554;28;20054;-83
2022/06/18 04:27:45;;;;;;;7.80;5.32;;;14.70;99.90;;;;;;5011221;28;20108;-84
2022/06/18 04:30:16;;;;;;;9.90;6.28;;;14.70;99.90;;;;;;5017816;28;20022;-84
2022/06/18 04:32:41;;;;;;;12.90;5.75;;;14.80;99.90;;;;;;5011362;28;20048;-84
2022/06/18 04:35:10;;;;;;;6.72;5.30;;;14.90;99.90;;;;;;5011111;28;20379;-83
2022/06/18 04:37:36;;;;;;;6.90;4.90;;;14.90;99.90;;;;;;5011496;28;20484;-83
2022/06/18 04:40:03;;;;;;;10.40;5.38;;;14.90;99.90;;;;;;5011302;28;20033;-84
2022/06/18 04:42:29;;;;;;;10.10;4.93;;;15.00;99.90;;;;;;5010088;28;20026;-83
2022/06/18 04:44:55;;;;;;;7.53;4.78;;;15.00;99.90;;;;;;5010984;28;20030;-83
2022/06/18 04:47:20;;;;;;;11.38;4.95;;;15.10;99.90;;;;;;5009846;28;20068;-84
2022/06/18 04:49:46;;;;;;;7.82;5.43;;;15.10;99.90;;;;;;5011078;28;20026;-84
2022/06/18 04:52:12;;;;;;;9.70;5.97;;;15.20;99.90;;;;;;5011185;28;20101;-84
2022/06/18 04:54:38;;;;;;;9.45;4.97;;;15.20;99.90;;;;;;5030871;23;20038;-85
2022/06/18 04:57:04;;;;;;;7.13;5.15;;;15.30;99.90;;;;;;4989598;28;20129;-85
2022/06/18 04:59:30;;;;;;;9.57;4.85;;;15.30;99.90;;;;;;4991217;28;20030;-85
2022/06/18 05:02:12;;;;;;;8.50;5.20;;;15.40;99.90;;;;;;4992382;28;20034;-84
2022/06/18 05:04:37;;;;;;;7.25;4.90;;;15.40;99.90;;;;;;4994735;28;20542;-85
2022/06/18 05:07:03;;;;;;;7.78;4.53;;;15.60;99.90;;;;;;4994803;28;20172;-85
2022/06/18 05:09:29;;;;;;;8.27;4.63;;;15.60;99.90;;;;;;4994736;28;20049;-85
2022/06/18 05:11:55;;;;;;;9.32;5.13;;;15.80;99.90;;;;;;4993523;28;20029;-84
2022/06/18 05:14:21;;;;;;;7.65;4.93;;;15.80;99.90;;;;;;4994476;28;20165;-84
2022/06/18 05:16:46;;;;;;;8.52;4.43;;;15.90;99.90;;;;;;4994866;28;20065;-85
2022/06/18 05:19:38;;;;;;;7.80;5.15;;;15.90;99.90;;;;;;4994643;28;20065;-84
2022/06/18 05:22:04;;;;;;;8.63;5.88;;;16.00;99.90;;;;;;4986110;28;20042;-85
2022/06/18 05:24:30;;;;;;;7.72;4.93;;;16.00;99.90;;;;;;4994227;28;20038;-84
2022/06/18 05:26:58;;;;;;;7.50;4.82;;;16.10;99.90;;;;;;4994591;28;20022;-85
2022/06/18 05:29:24;;;;;;;10.57;5.53;;;16.20;99.90;;;;;;4994507;28;20042;-85
2022/06/18 05:31:49;;;;;;;10.65;5.32;;;16.20;99.90;;;;;;4993174;28;20019;-85
2022/06/18 05:34:16;;;;;;;12.25;5.68;;;16.40;99.90;;;;;;4994154;28;20030;-85
2022/06/18 05:36:41;;;;;;;6.18;4.88;;;16.60;99.90;;;;;;4993297;28;20027;-84
2022/06/18 05:39:10;;;;;;;11.82;5.25;;;16.70;99.90;;;;;;4993999;28;20022;-85
2022/06/18 05:41:36;;;;;;;11.20;4.93;;;16.90;99.90;;;;;;4992256;28;20014;-85
2022/06/18 05:44:03;;;;;;;9.40;5.20;;;17.10;99.90;;;;;;4994224;28;20025;-84
2022/06/18 05:46:29;;;;;;;11.30;5.75;;;17.30;99.90;;;;;;4993744;28;20019;-85
2022/06/18 05:48:55;;;;;;;8.85;4.88;;;17.50;99.90;;;;;;4994151;28;20098;-85
2022/06/18 05:51:20;;;;;;;6.88;4.32;;;17.70;99.90;;;;;;4994045;28;20089;-85
2022/06/18 05:56:14;;;;;;;8.82;4.57;;;18.00;99.90;;;;;;5051599;28;19921;-84
2022/06/18 05:58:40;;;;;;;14.27;5.80;;;18.30;99.90;;;;;;5054006;28;20040;-84
2022/06/18 06:01:05;;;;;;;10.95;6.05;;;18.60;99.90;;;;;;5053793;28;20067;-85
2022/06/18 06:03:31;;;;;;;9.48;4.43;;;18.80;99.90;;;;;;5053589;28;20091;-84
2022/06/18 06:05:57;;;;;;;9.82;4.43;;;18.90;99.90;;;;;;5033959;28;20048;-84
2022/06/18 06:08:23;;;;;;;11.73;4.07;;;19.10;99.90;;;;;;5033783;28;20061;-84
2022/06/18 06:13:33;;;;;;;13.85;4.32;;;19.30;99.90;;;;;;5033447;28;20040;-84
2022/06/18 06:15:59;;;;;;;11.57;4.00;;;19.40;99.90;;;;;;5033664;28;20386;-84
2022/06/18 06:18:25;;;;;;;7.45;4.28;;;19.50;99.90;;;;;;5033431;28;20029;-84
2022/06/18 06:20:54;;;;;;;9.00;4.22;;;19.50;99.90;;;;;;5033351;28;20025;-84
2022/06/18 06:23:20;;;;;;;9.25;4.20;;;19.60;99.90;;;;;;5033309;28;20026;-84
2022/06/18 06:25:48;;;;;;;5.95;3.85;;;19.60;99.90;;;;;;5032225;28;20052;-84
2022/06/18 06:28:25;;;;;;;6.13;4.05;;;19.70;99.90;;;;;;5033482;28;20017;-84
2022/06/18 06:30:52;;;;;;;7.43;4.40;;;19.80;99.90;;;;;;5033137;28;20040;-84
2022/06/18 06:33:18;;;;;;;7.97;4.18;;;20.00;99.90;;;;;;5032972;28;20088;-84
2022/06/18 06:35:45;;;;;;;6.45;3.95;;;20.40;99.90;;;;;;5033024;28;20104;-84
2022/06/18 06:38:11;;;;;;;6.63;3.70;;;20.80;99.90;;;;;;5033265;28;20021;-84
2022/06/18 06:40:37;;;;;;;8.88;3.42;;;21.20;99.90;;;;;;5013166;28;20029;-84
2022/06/18 06:43:04;;;;;;;9.13;4.55;;;21.70;99.90;;;;;;5033102;28;20029;-85
2022/06/18 06:45:32;;;;;;;7.25;3.70;;;22.00;99.90;;;;;;5032873;28;20364;-85
2022/06/18 06:47:58;;;;;;;7.93;3.75;;;22.10;99.90;;;;;;5033168;28;20029;-84
2022/06/18 06:50:26;;;;;;;7.47;3.30;;;22.40;99.90;;;;;;5032845;28;20025;-86
2022/06/18 06:52:52;;;;;;;6.93;3.35;;;22.40;99.90;;;;;;5039865;28;20080;-86
2022/06/18 06:58:16;;;;;;;6.93;3.65;;;22.90;99.90;;;;;;4992713;28;20061;-84
2022/06/18 07:00:45;;;;;;;4.10;3.00;;;22.80;99.90;;;;;;4991349;28;20471;-84
2022/06/18 07:03:13;;;;;;;6.72;3.70;;;22.90;99.90;;;;;;4991265;28;20056;-85
2022/06/18 07:05:39;;;;;;;7.05;3.10;;;23.20;99.90;;;;;;4992569;28;20065;-85
2022/06/18 07:08:06;;;;;;;7.35;3.35;;;23.40;99.90;;;;;;4992305;28;20014;-85
2022/06/18 07:10:32;;;;;;;5.30;3.38;;;23.50;99.90;;;;;;4992442;28;20502;-85
2022/06/18 07:12:57;;;;;;;7.93;3.72;;;23.50;99.90;;;;;;4992858;28;20050;-85
2022/06/18 07:15:23;;;;;;;5.40;3.03;;;23.30;99.90;;;;;;4991078;28;20022;-85
2022/06/18 07:17:49;;;;;;;4.65;3.15;;;23.20;99.90;;;;;;4992310;28;20153;-85
2022/06/18 07:20:16;;;;;;;7.63;3.42;;;23.20;99.90;;;;;;4992863;28;20034;-85
2022/06/18 07:22:42;;;;;;;7.10;4.00;;;23.30;99.90;;;;;;4992355;28;20034;-85
2022/06/18 07:25:09;;;;;;;8.25;3.40;;;23.50;99.90;;;;;;4991656;28;20391;-85
2022/06/18 07:27:35;;;;;;;8.35;3.70;;;23.70;99.90;;;;;;4992192;28;20109;-85
2022/06/18 07:30:01;;;;;;;8.07;3.28;;;23.80;99.90;;;;;;4992444;28;20018;-86
2022/06/18 07:32:27;;;;;;;5.78;3.03;;;23.60;99.90;;;;;;4992318;28;20018;-86
2022/06/18 07:34:55;;;;;;;5.85;3.60;;;23.70;99.90;;;;;;4992489;28;20011;-87
2022/06/18 07:37:22;;;;;;;7.95;3.47;;;23.60;99.90;;;;;;4992144;28;20038;-86
2022/06/18 07:39:48;;;;;;;6.35;3.20;;;23.50;99.90;;;;;;4991530;28;20019;-85
2022/06/18 07:42:18;;;;;;;6.70;3.33;;;23.40;99.90;;;;;;4992090;28;20032;-87
2022/06/18 07:44:44;;;;;;;7.53;3.30;;;23.50;99.90;;;;;;4980418;28;20511;-85
2022/06/18 07:47:18;;;;;;;8.10;3.53;;;23.60;99.90;;;;;;4990741;28;20023;-87
2022/06/18 07:49:45;;;;;;;7.25;3.97;;;23.70;99.90;;;;;;4990371;28;20022;-87
2022/06/18 07:52:12;;;;;;;6.45;3.13;;;23.90;99.90;;;;;;4987786;28;20372;-87
2022/06/18 07:54:39;;;;;;;8.50;3.55;;;24.10;99.90;;;;;;5016113;23;20049;-84
2022/06/18 07:57:05;;;;;;;9.18;3.47;;;24.20;99.90;;;;;;4990119;28;20068;-86
2022/06/18 07:59:32;;;;;;;6.82;3.33;;;24.40;99.90;;;;;;4990434;28;20476;-83
2022/06/18 08:01:58;;;;;;;6.85;3.75;;;24.60;99.90;;;;;;4984987;28;20033;-88
2022/06/18 08:04:23;;;;;;;8.27;3.50;;;24.70;99.90;;;;;;4997101;28;20037;-87
2022/06/18 08:06:49;;;;;;;4.72;3.33;;;25.10;99.90;;;;;;5009619;28;20036;-86
2022/06/18 08:09:15;;;;;;;8.73;3.80;;;25.10;99.90;;;;;;5010120;28;20021;-88
2022/06/18 08:11:42;;;;;;;8.02;3.67;;;24.90;99.90;;;;;;5010764;28;20030;-87
2022/06/18 08:14:08;;;;;;;6.78;3.15;;;24.90;99.90;;;;;;5009692;28;20609;-86
2022/06/18 08:16:34;;;;;;;6.85;3.65;;;24.70;99.90;;;;;;5011294;28;20045;-84
2022/06/18 08:19:00;;;;;;;7.30;3.38;;;24.70;99.90;;;;;;5010855;28;20013;-86
2022/06/18 08:21:39;;;;;;;7.90;3.53;;;24.80;99.90;;;;;;5010931;28;20032;-81
2022/06/18 08:24:10;;;;;;;8.07;4.10;;;25.10;99.90;;;;;;5010150;28;20034;-83
2022/06/18 08:26:38;;;;;;;7.33;3.50;;;25.20;99.90;;;;;;5010798;28;20029;-86
2022/06/18 08:29:06;;;;;;;10.75;4.00;;;25.50;99.90;;;;;;5010578;28;20022;-84
2022/06/18 08:31:32;;;;;;;5.97;3.45;;;25.60;99.90;;;;;;5025429;28;20026;-86
2022/06/18 08:33:58;;;;;;;5.78;3.45;;;25.80;99.90;;;;;;5009062;28;20030;-86
2022/06/18 08:36:25;;;;;;;4.95;3.17;;;25.90;99.90;;;;;;5010995;28;20018;-87
2022/06/18 08:38:51;;;;;;;6.93;3.72;;;26.00;99.90;;;;;;5014657;28;20030;-85
2022/06/18 08:41:38;;;;;;;8.25;3.45;;;26.10;99.30;;;;;;5014211;28;20045;-86
2022/06/18 08:44:47;;;;;;;11.10;4.00;;;26.40;99.90;;;;;;5010107;28;20057;-87
2022/06/18 08:47:25;;;;;;;10.27;4.40;;;26.50;97.50;;;;;;5013128;28;20024;-86
2022/06/18 08:50:21;;;;;;;8.23;3.35;;;27.00;99.20;;;;;;5014285;28;20022;-85
2022/06/18 08:52:47;;;;;;;8.25;3.53;;;27.40;98.20;;;;;;5013818;28;20387;-85
2022/06/18 08:55:56;;;;;;;4.82;3.10;;;28.00;97.90;;;;;;5046770;23;20529;-86
2022/06/18 08:58:56;;;;;;;9.95;3.35;;;28.10;88.90;;;;;;5019827;28;20044;-95
2022/06/18 09:01:29;;;;;;;5.82;3.10;;;28.60;93.20;;;;;;5027967;28;20025;-92
2022/06/18 09:04:31;;;;;;;7.32;3.53;;;29.00;79.90;;;;;;5028358;28;20030;-93
2022/06/18 09:07:17;;;;;;;7.70;4.13;;;29.40;74.70;;;;;;5020522;28;20108;-94
2022/06/18 09:10:09;;;;;;;6.65;3.10;;;29.50;71.90;;;;;;5039109;28;20042;-93
2022/06/18 09:12:46;;;;;;;7.88;3.40;;;30.60;70.60;;;;;;5007987;28;20506;-93
2022/06/18 09:15:22;;;;;;;8.27;2.80;;;30.90;67.50;;;;;;5022141;28;20382;-93
2022/06/18 09:17:57;;;;;;;6.63;3.40;;;31.30;65.10;;;;;;5026333;28;20052;-92
2022/06/18 09:20:28;;;;;;;9.75;3.72;;;31.40;63.60;;;;;;5023069;28;20424;-91
2022/06/18 09:22:58;;;;;;;5.85;2.67;;;32.00;64.20;;;;;;5014478;28;20025;-91
2022/06/18 09:25:30;;;;;;;5.07;2.50;;;32.10;62.20;;;;;;5034816;28;20044;-91
2022/06/18 09:28:04;;;;;;;6.78;3.13;;;32.90;61.20;;;;;;5030220;28;20048;-92
2022/06/18 09:30:39;;;;;;;6.05;2.63;;;33.70;63.20;;;;;;5044883;28;20025;-93
2022/06/18 09:33:40;;;;;;;5.40;2.75;;;34.50;60.00;;;;;;5025213;28;20025;-91
2022/06/18 09:36:13;;;;;;;5.53;2.88;;;35.50;55.20;;;;;;5021433;28;20022;-91
2022/06/18 09:38:44;;;;;;;9.25;3.13;;;35.20;51.90;;;;;;5023576;28;20057;-91
2022/06/18 09:41:25;;;;;;;5.25;2.42;;;35.60;49.90;;;;;;5024491;28;20025;-93
2022/06/18 09:44:10;;;;;;;8.20;3.80;;;36.20;52.90;;;;;;5024427;28;20079;-89
2022/06/18 09:47:20;;;;;;;6.43;2.70;;;36.40;49.70;;;;;;5030085;28;20025;-93
2022/06/18 09:49:47;;;;;;;5.63;2.78;;;36.30;49.70;;;;;;4995691;28;20383;-92
2022/06/18 09:52:19;;;;;;;6.43;3.58;;;35.90;51.00;;;;;;5031367;28;20580;-90
2022/06/18 09:54:55;;;;;;;4.30;2.88;;;35.60;53.30;;;;;;5011315;28;20386;-92
2022/06/18 09:57:25;;;;;;;6.10;3.70;;;35.30;52.50;;;;;;5018927;28;20021;-91
2022/06/18 09:59:54;;;;;;;7.63;3.33;;;35.20;54.80;;;;;;5017865;28;20028;-87
2022/06/18 10:02:27;;;;;;;8.77;2.53;;;34.00;52.30;;;;;;5016623;28;20105;-89
2022/06/18 10:07:46;;;;;;;6.55;2.70;;;35.50;57.00;;;;;;5037500;28;20060;-88
2022/06/18 10:10:21;;;;;;;6.15;3.10;;;36.10;52.30;;;;;;5019135;28;20051;-90
2022/06/18 10:12:55;;;;;;;3.42;2.60;;;35.90;52.90;;;;;;5017558;28;20071;-91
2022/06/18 10:15:23;;;;;;;5.85;2.67;;;35.70;51.10;;;;;;5024194;28;20056;-90
2022/06/18 10:18:11;;;;;;;6.07;3.20;;;36.50;52.30;;;;;;5017743;28;20030;-91
2022/06/18 10:20:50;;;;;;;8.23;2.95;;;37.30;49.40;;;;;;5019248;28;20025;-90
2022/06/18 10:23:29;;;;;;;5.68;2.70;;;38.30;46.40;;;;;;5020827;28;20033;-91
2022/06/18 10:26:10;;;;;;;8.93;3.08;;;37.90;45.60;;;;;;5022795;23;20570;-83
2022/06/18 10:28:56;;;;;;;8.90;2.67;;;38.20;45.90;;;;;;5012737;28;20112;-84
2022/06/18 10:31:53;;;;;;;6.25;3.20;;;38.40;48.30;;;;;;5008592;28;20014;-84
2022/06/18 10:34:59;;;;;;;7.80;3.08;;;38.10;46.30;;;;;;5012618;28;20014;-84
2022/06/18 10:38:07;;;;;;;10.90;4.05;;;38.20;47.70;;;;;;4995275;28;20447;-84
2022/06/18 10:40:41;;;;;;;6.82;2.75;;;38.10;43.90;;;;;;4998731;28;20042;-82
2022/06/18 10:43:16;;;;;;;8.25;2.70;;;38.30;45.70;;;;;;5012638;28;20387;-83
2022/06/18 10:45:42;;;;;;;9.98;3.10;;;37.90;44.00;;;;;;5007099;28;20032;-82
2022/06/18 10:48:18;;;;;;;7.65;3.17;;;38.20;44.40;;;;;;5012640;28;20022;-84
2022/06/18 10:50:50;;;;;;;6.57;2.85;;;39.30;46.10;;;;;;5012611;28;20026;-82
2022/06/18 10:53:18;;;;;;;5.93;2.58;;;39.00;42.00;;;;;;5012445;28;20026;-84
2022/06/18 10:55:55;;;;;;;9.35;3.03;;;38.80;46.40;;;;;;5011859;28;20014;-84
2022/06/18 10:58:21;;;;;;;6.90;2.83;;;38.40;46.00;;;;;;5005815;28;20021;-82
2022/06/18 11:01:02;;;;;;;4.63;2.60;;;38.00;45.10;;;;;;5010862;28;20379;-82
2022/06/18 11:03:30;;;;;;;7.82;2.75;;;37.40;47.40;;;;;;5011998;28;20034;-84
2022/06/18 11:06:01;;;;;;;5.55;3.05;;;36.70;45.30;;;;;;5010750;28;20428;-81
2022/06/18 11:08:31;;;;;;;4.70;3.08;;;36.60;47.20;;;;;;4994630;28;20045;-88
2022/06/18 11:11:01;;;;;;;7.78;3.20;;;35.70;48.00;;;;;;5011862;28;20364;-85
2022/06/18 11:13:30;;;;;;;7.10;3.40;;;35.00;50.30;;;;;;5012084;28;20049;-85
2022/06/18 11:16:15;;;;;;;8.57;3.25;;;33.90;54.90;;;;;;5011338;28;20030;-82
2022/06/18 11:18:58;;;;;;;5.88;2.90;;;33.20;53.00;;;;;;5012178;28;20139;-83
2022/06/18 11:21:35;;;;;;;8.90;4.07;;;33.50;55.00;;;;;;5012018;28;20025;-80
2022/06/18 11:26:32;;;;;;;;;;;35.70;51.30;;;;;;5049859;28;20045;-87
2022/06/18 11:29:10;;;;;;;7.57;3.22;;;37.40;52.30;;;;;;5033528;28;19905;-86
2022/06/18 11:31:44;;;;;;;4.50;2.78;;;37.70;47.40;;;;;;5033099;28;20033;-87
2022/06/18 11:34:24;;;;;;;5.95;3.28;;;37.60;48.80;;;;;;5049967;28;20062;-85
2022/06/18 11:36:54;;;;;;;11.65;3.83;;;36.90;47.60;;;;;;5039262;28;20032;-86
2022/06/18 11:39:37;;;;;;;9.15;2.92;;;37.50;46.90;;;;;;5033189;28;20032;-89
2022/06/18 11:42:27;;;;;;;7.85;2.60;;;37.70;48.80;;;;;;5019861;28;20024;-89
2022/06/18 11:44:57;;;;;;;6.28;2.20;;;36.70;46.70;;;;;;5014589;28;20379;-89
2022/06/18 11:47:43;;;;;;;3.60;2.00;;;34.80;51.20;;;;;;5038549;28;20013;-89
2022/06/18 11:50:23;;;;;;;5.38;2.17;;;34.00;53.40;;;;;;5023925;28;20026;-88
2022/06/18 11:53:16;;;;;;;2.45;1.70;;;33.40;52.50;;;;;;5038661;28;20026;-90
2022/06/18 11:55:46;;;;;;;4.47;1.88;;;32.00;59.90;;;;;;5027092;28;20028;-89
2022/06/18 11:58:40;;;;;;;6.93;2.17;;;31.30;60.90;;;;;;5035850;28;20021;-88
2022/06/18 12:01:40;;;;;;;3.90;1.92;;;30.60;61.50;;;;;;5036946;28;20021;-87
2022/06/18 12:04:34;;;;;;;7.10;2.53;;;30.10;65.80;;;;;;5037851;28;20025;-86
2022/06/18 12:07:25;;;;;;;7.65;2.20;;;29.80;66.80;;;;;;5040420;28;20013;-86
2022/06/18 12:09:52;;;;;;;4.82;2.03;;;30.70;67.80;;;;;;5041153;28;20021;-86
2022/06/18 12:12:53;;;;;;;2.85;1.88;;;32.50;62.10;;;;;;5041909;28;20619;-86
2022/06/18 12:15:28;;;;;;;5.63;1.80;;;34.10;61.20;;;;;;5019321;28;20082;-88
2022/06/18 12:18:26;;;;;;;8.65;3.33;;;35.80;52.70;;;;;;5039833;28;20040;-88
2022/06/18 12:20:56;;;;;;;5.50;1.85;;;36.70;49.90;;;;;;5020380;28;20028;-87
2022/06/18 12:23:35;;;;;;;2.58;1.80;;;36.30;50.70;;;;;;5022151;28;20183;-88
2022/06/18 12:26:14;;;;;;;4.53;1.80;;;36.40;50.20;;;;;;5058838;23;20045;-93
2022/06/18 12:28:46;;;;;;;4.63;1.85;;;36.20;51.10;;;;;;5001469;28;20490;-90
2022/06/18 12:31:15;;;;;;;3.38;1.92;;;35.20;48.80;;;;;;5032596;28;20025;-94
2022/06/18 12:33:55;;;;;;;6.40;1.90;;;34.70;52.50;;;;;;5031606;28;20490;-88
2022/06/18 12:36:29;;;;;;;3.17;2.10;;;34.00;52.90;;;;;;5037673;28;20371;-93
2022/06/18 12:39:16;;;;;;;5.57;2.00;;;33.40;55.60;;;;;;5039872;28;20810;-95
2022/06/18 12:41:45;;;;;;;4.93;1.80;;;32.10;56.20;;;;;;5031772;28;20021;-90
2022/06/18 12:44:31;;;;;;;6.07;2.00;;;31.10;59.60;;;;;;5038626;28;20474;-91
2022/06/18 12:47:12;;;;;;;5.18;2.25;;;30.30;62.60;;;;;;5033524;28;20136;-91
2022/06/18 12:49:58;;;;;;;8.20;2.55;;;29.90;64.60;;;;;;5043071;28;20108;-92
2022/06/18 12:52:33;;;;;;;2.92;1.85;;;30.20;71.50;;;;;;5031699;28;20038;-89
2022/06/18 12:55:16;;;;;;;3.92;2.00;;;30.50;63.90;;;;;;5032220;28;20022;-94
2022/06/18 12:58:02;;;;;;;7.28;2.40;;;30.30;62.50;;;;;;5038877;28;20022;-88
2022/06/18 13:00:45;;;;;;;6.50;2.50;;;30.30;64.60;;;;;;5031331;28;20068;-90
2022/06/18 13:03:44;;;;;;;5.15;2.15;;;29.90;63.20;;;;;;5039267;28;20021;-94
2022/06/18 13:06:33;;;;;;;3.67;2.05;;;29.80;64.40;;;;;;5031229;28;20034;-91
2022/06/18 13:09:26;;;;;;;5.60;2.20;;;29.10;67.10;;;;;;5030261;28;20017;-90
2022/06/18 13:12:23;;;;;;;4.00;2.30;;;28.90;64.90;;;;;;5030810;28;20041;-93
2022/06/18 13:15:04;;;;;;;3.88;2.08;;;29.30;68.60;;;;;;5036526;28;20108;-96
2022/06/18 13:17:44;;;;;;;5.65;2.17;;;29.40;67.60;;;;;;5029092;28;20124;-93
2022/06/18 13:20:25;;;;;;;3.45;1.60;;;28.50;68.60;;;;;;5037758;28;20087;-91
2022/06/18 13:22:51;;;;;;;;;;;27.70;70.70;;;;;;5038617;28;20835;-92
2022/06/18 13:28:13;;;;;;;2.65;1.70;;;26.90;77.80;;;;;;5014556;28;20029;-89
2022/06/18 13:31:06;;;;;;;2.70;2.00;;;26.50;87.60;;;;;;5015257;28;20109;-91
2022/06/18 13:33:53;;;;;;;5.80;2.00;;;26.40;92.70;;;;;;5012423;28;20023;-93